sensor_id;sensor_type;location;lat;lon;timestamp;temperature;humidity
28460;DHT22;32528;45.712;9.192;2022-11-15T00:01:20;6.80;99.90
28460;DHT22;32528;45.712;9.192;2022-11-15T00:03:39;6.70;99.90
28460;DHT22;32528;45.712;9.192;2022-11-15T00:06:02;6.70;99.90
28460;DHT22;32528;45.712;9.192;2022-11-15T00:08:21;6.60;99.90
28460;DHT22;32528;45.712;9.192;2022-11-15T00:10:41;6.70;99.90
28460;DHT22;32528;45.712;9.192;2022-11-15T00:13:03;6.60;99.90
28460;DHT22;32528;45.712;9.192;2022-11-15T00:15:23;6.60;99.90
28460;DHT22;32528;45.712;9.192;2022-11-15T00:17:42;6.60;99.90
28460;DHT22;32528;45.712;9.192;2022-11-15T00:20:02;6.70;99.90
28460;DHT22;32528;45.712;9.192;2022-11-15T00:22:21;6.70;99.90
28460;DHT22;32528;45.712;9.192;2022-11-15T00:24:40;6.60;99.90
28460;DHT22;32528;45.712;9.192;2022-11-15T00:26:59;6.70;99.90
28460;DHT22;32528;45.712;9.192;2022-11-15T00:29:18;6.70;99.90
28460;DHT22;32528;45.712;9.192;2022-11-15T00:31:38;6.70;99.90
28460;DHT22;32528;45.712;9.192;2022-11-15T00:33:57;6.70;99.90
28460;DHT22;32528;45.712;9.192;2022-11-15T00:36:16;6.70;99.90
28460;DHT22;32528;45.712;9.192;2022-11-15T00:38:36;6.70;99.90
28460;DHT22;32528;45.712;9.192;2022-11-15T00:40:55;6.70;99.90
28460;DHT22;32528;45.712;9.192;2022-11-15T00:43:15;6.70;99.90
28460;DHT22;32528;45.712;9.192;2022-11-15T00:45:35;6.70;99.90
28460;DHT22;32528;45.712;9.192;2022-11-15T00:47:54;6.70;99.90
28460;DHT22;32528;45.712;9.192;2022-11-15T00:50:13;6.60;99.90
28460;DHT22;32528;45.712;9.192;2022-11-15T00:52:32;6.70;99.90
28460;DHT22;32528;45.712;9.192;2022-11-15T00:54:51;6.60;99.90
28460;DHT22;32528;45.712;9.192;2022-11-15T00:57:11;6.60;99.90
28460;DHT22;32528;45.712;9.192;2022-11-15T00:59:30;6.60;99.90
28460;DHT22;32528;45.712;9.192;2022-11-15T01:01:49;6.60;99.90
28460;DHT22;32528;45.712;9.192;2022-11-15T01:04:08;6.50;99.90
28460;DHT22;32528;45.712;9.192;2022-11-15T01:06:27;6.50;99.90
28460;DHT22;32528;45.712;9.192;2022-11-15T01:08:47;6.50;99.90
28460;DHT22;32528;45.712;9.192;2022-11-15T01:11:07;6.60;99.90
28460;DHT22;32528;45.712;9.192;2022-11-15T01:13:29;6.60;99.90
28460;DHT22;32528;45.712;9.192;2022-11-15T01:15:48;6.50;99.90
28460;DHT22;32528;45.712;9.192;2022-11-15T01:18:07;6.50;99.90
28460;DHT22;32528;45.712;9.192;2022-11-15T01:20:26;6.50;99.90
28460;DHT22;32528;45.712;9.192;2022-11-15T01:22:45;6.60;99.90
28460;DHT22;32528;45.712;9.192;2022-11-15T01:25:05;6.60;99.90
28460;DHT22;32528;45.712;9.192;2022-11-15T01:27:24;6.50;99.90
28460;DHT22;32528;45.712;9.192;2022-11-15T01:29:43;6.50;99.90
28460;DHT22;32528;45.712;9.192;2022-11-15T01:32:02;6.50;99.90
28460;DHT22;32528;45.712;9.192;2022-11-15T01:34:21;6.40;99.90
28460;DHT22;32528;45.712;9.192;2022-11-15T01:36:41;6.40;99.90
28460;DHT22;32528;45.712;9.192;2022-11-15T01:39:00;6.40;99.90
28460;DHT22;32528;45.712;9.192;2022-11-15T01:41:20;6.40;99.90
28460;DHT22;32528;45.712;9.192;2022-11-15T01:43:40;6.40;99.90
28460;DHT22;32528;45.712;9.192;2022-11-15T01:48:34;6.40;99.90
28460;DHT22;32528;45.712;9.192;2022-11-15T01:50:53;6.40;99.90
28460;DHT22;32528;45.712;9.192;2022-11-15T01:53:13;6.40;99.90
28460;DHT22;32528;45.712;9.192;2022-11-15T01:55:32;6.40;99.90
28460;DHT22;32528;45.712;9.192;2022-11-15T01:57:53;6.50;99.90
28460;DHT22;32528;45.712;9.192;2022-11-15T02:00:13;6.50;99.90
28460;DHT22;32528;45.712;9.192;2022-11-15T02:02:33;6.50;99.90
28460;DHT22;32528;45.712;9.192;2022-11-15T02:04:53;6.40;99.90
28460;DHT22;32528;45.712;9.192;2022-11-15T02:07:16;6.40;99.90
28460;DHT22;32528;45.712;9.192;2022-11-15T02:09:36;6.40;99.90
28460;DHT22;32528;45.712;9.192;2022-11-15T02:11:56;6.40;99.90
28460;DHT22;32528;45.712;9.192;2022-11-15T02:14:15;6.40;99.90
28460;DHT22;32528;45.712;9.192;2022-11-15T02:21:33;6.40;99.90
28460;DHT22;32528;45.712;9.192;2022-11-15T02:29:08;6.50;99.90
28460;DHT22;32528;45.712;9.192;2022-11-15T02:31:36;6.50;99.90
28460;DHT22;32528;45.712;9.192;2022-11-15T02:36:27;6.40;99.90
28460;DHT22;32528;45.712;9.192;2022-11-15T02:41:25;6.50;99.90
28460;DHT22;32528;45.712;9.192;2022-11-15T02:43:53;6.50;99.90
28460;DHT22;32528;45.712;9.192;2022-11-15T02:46:21;6.60;99.90
28460;DHT22;32528;45.712;9.192;2022-11-15T02:48:41;6.60;99.90
28460;DHT22;32528;45.712;9.192;2022-11-15T02:51:02;6.70;99.90
28460;DHT22;32528;45.712;9.192;2022-11-15T02:53:24;6.70;99.90
28460;DHT22;32528;45.712;9.192;2022-11-15T02:55:47;6.70;99.90
28460;DHT22;32528;45.712;9.192;2022-11-15T03:00:48;6.70;99.90
28460;DHT22;32528;45.712;9.192;2022-11-15T03:03:16;6.80;99.90
28460;DHT22;32528;45.712;9.192;2022-11-15T03:08:21;6.70;99.90
28460;DHT22;32528;45.712;9.192;2022-11-15T03:10:55;6.70;99.90
28460;DHT22;32528;45.712;9.192;2022-11-15T03:15:41;6.70;99.90
28460;DHT22;32528;45.712;9.192;2022-11-15T03:18:10;6.70;99.90
28460;DHT22;32528;45.712;9.192;2022-11-15T03:20:32;6.70;99.90
28460;DHT22;32528;45.712;9.192;2022-11-15T03:22:52;6.80;99.90
28460;DHT22;32528;45.712;9.192;2022-11-15T03:25:13;6.70;99.90
28460;DHT22;32528;45.712;9.192;2022-11-15T03:27:36;6.80;99.90
28460;DHT22;32528;45.712;9.192;2022-11-15T03:30:00;6.80;99.90
28460;DHT22;32528;45.712;9.192;2022-11-15T03:32:25;6.80;99.90
28460;DHT22;32528;45.712;9.192;2022-11-15T03:34:51;6.80;99.90
28460;DHT22;32528;45.712;9.192;2022-11-15T03:37:12;6.70;99.90
28460;DHT22;32528;45.712;9.192;2022-11-15T03:39:32;6.70;99.90
28460;DHT22;32528;45.712;9.192;2022-11-15T03:46:41;6.80;99.90
28460;DHT22;32528;45.712;9.192;2022-11-15T03:49:18;6.70;99.90
28460;DHT22;32528;45.712;9.192;2022-11-15T03:51:39;6.70;99.90
28460;DHT22;32528;45.712;9.192;2022-11-15T03:53:58;6.70;99.90
28460;DHT22;32528;45.712;9.192;2022-11-15T03:56:17;6.80;99.90
28460;DHT22;32528;45.712;9.192;2022-11-15T03:58:37;6.90;99.90
28460;DHT22;32528;45.712;9.192;2022-11-15T04:00:56;6.90;99.90
28460;DHT22;32528;45.712;9.192;2022-11-15T04:03:15;6.90;99.90
28460;DHT22;32528;45.712;9.192;2022-11-15T04:05:35;6.90;99.90
28460;DHT22;32528;45.712;9.192;2022-11-15T04:07:54;7.00;99.90
28460;DHT22;32528;45.712;9.192;2022-11-15T04:10:14;7.00;99.90
28460;DHT22;32528;45.712;9.192;2022-11-15T04:12:35;7.00;99.90
28460;DHT22;32528;45.712;9.192;2022-11-15T04:14:54;7.00;99.90
28460;DHT22;32528;45.712;9.192;2022-11-15T04:17:26;7.10;99.90
28460;DHT22;32528;45.712;9.192;2022-11-15T04:19:45;7.10;99.90
28460;DHT22;32528;45.712;9.192;2022-11-15T04:22:24;7.20;99.90
28460;DHT22;32528;45.712;9.192;2022-11-15T04:25:13;7.30;99.90
28460;DHT22;32528;45.712;9.192;2022-11-15T04:27:32;7.30;99.90
28460;DHT22;32528;45.712;9.192;2022-11-15T04:29:51;7.40;99.90
28460;DHT22;32528;45.712;9.192;2022-11-15T04:32:10;7.50;99.90
28460;DHT22;32528;45.712;9.192;2022-11-15T04:34:30;7.50;99.90
28460;DHT22;32528;45.712;9.192;2022-11-15T04:36:50;7.60;99.90
28460;DHT22;32528;45.712;9.192;2022-11-15T04:39:28;7.70;99.90
28460;DHT22;32528;45.712;9.192;2022-11-15T04:41:47;7.70;99.90
28460;DHT22;32528;45.712;9.192;2022-11-15T04:44:07;7.80;99.90
28460;DHT22;32528;45.712;9.192;2022-11-15T04:46:26;7.80;99.90
28460;DHT22;32528;45.712;9.192;2022-11-15T04:48:46;7.80;99.90
28460;DHT22;32528;45.712;9.192;2022-11-15T04:51:05;7.90;99.90
28460;DHT22;32528;45.712;9.192;2022-11-15T04:53:24;7.90;99.90
28460;DHT22;32528;45.712;9.192;2022-11-15T04:55:44;7.90;99.90
28460;DHT22;32528;45.712;9.192;2022-11-15T04:58:03;8.00;99.90
28460;DHT22;32528;45.712;9.192;2022-11-15T05:00:22;8.00;99.90
28460;DHT22;32528;45.712;9.192;2022-11-15T05:02:41;8.10;99.90
28460;DHT22;32528;45.712;9.192;2022-11-15T05:05:20;8.10;99.90
28460;DHT22;32528;45.712;9.192;2022-11-15T05:07:40;8.20;99.90
28460;DHT22;32528;45.712;9.192;2022-11-15T05:09:59;8.20;99.90
28460;DHT22;32528;45.712;9.192;2022-11-15T05:12:18;8.20;99.90
28460;DHT22;32528;45.712;9.192;2022-11-15T05:14:38;8.20;99.90
28460;DHT22;32528;45.712;9.192;2022-11-15T05:16:58;8.30;99.90
28460;DHT22;32528;45.712;9.192;2022-11-15T05:19:18;8.30;99.90
28460;DHT22;32528;45.712;9.192;2022-11-15T05:21:37;8.30;99.90
28460;DHT22;32528;45.712;9.192;2022-11-15T05:23:56;8.40;99.90
28460;DHT22;32528;45.712;9.192;2022-11-15T05:26:16;8.40;99.90
28460;DHT22;32528;45.712;9.192;2022-11-15T05:28:36;8.40;99.90
28460;DHT22;32528;45.712;9.192;2022-11-15T05:33:21;8.50;99.90
28460;DHT22;32528;45.712;9.192;2022-11-15T05:35:41;8.50;99.90
28460;DHT22;32528;45.712;9.192;2022-11-15T05:38:01;8.50;99.90
28460;DHT22;32528;45.712;9.192;2022-11-15T05:40:20;8.50;99.90
28460;DHT22;32528;45.712;9.192;2022-11-15T05:42:39;8.60;99.90
28460;DHT22;32528;45.712;9.192;2022-11-15T05:44:59;8.60;99.90
28460;DHT22;32528;45.712;9.192;2022-11-15T05:47:24;8.60;99.90
28460;DHT22;32528;45.712;9.192;2022-11-15T05:49:45;8.60;99.90
28460;DHT22;32528;45.712;9.192;2022-11-15T05:52:06;8.60;99.90
28460;DHT22;32528;45.712;9.192;2022-11-15T05:54:26;8.60;99.90
28460;DHT22;32528;45.712;9.192;2022-11-15T05:56:45;8.60;99.90
28460;DHT22;32528;45.712;9.192;2022-11-15T05:59:05;8.50;99.90
28460;DHT22;32528;45.712;9.192;2022-11-15T06:01:24;8.50;99.90
28460;DHT22;32528;45.712;9.192;2022-11-15T06:03:44;8.60;99.90
28460;DHT22;32528;45.712;9.192;2022-11-15T06:06:03;8.60;99.90
28460;DHT22;32528;45.712;9.192;2022-11-15T06:08:23;8.60;99.90
28460;DHT22;32528;45.712;9.192;2022-11-15T06:10:42;8.60;99.90
28460;DHT22;32528;45.712;9.192;2022-11-15T06:13:02;8.60;99.90
28460;DHT22;32528;45.712;9.192;2022-11-15T06:15:21;8.50;99.90
28460;DHT22;32528;45.712;9.192;2022-11-15T06:17:41;8.60;99.90
28460;DHT22;32528;45.712;9.192;2022-11-15T06:20:00;8.70;99.90
28460;DHT22;32528;45.712;9.192;2022-11-15T06:22:19;8.70;99.90
28460;DHT22;32528;45.712;9.192;2022-11-15T06:24:38;8.70;99.90
28460;DHT22;32528;45.712;9.192;2022-11-15T06:26:57;8.70;99.90
28460;DHT22;32528;45.712;9.192;2022-11-15T06:29:18;8.80;99.90
28460;DHT22;32528;45.712;9.192;2022-11-15T06:31:39;8.80;99.90
28460;DHT22;32528;45.712;9.192;2022-11-15T06:33:58;8.80;99.90
28460;DHT22;32528;45.712;9.192;2022-11-15T06:36:17;8.80;99.90
28460;DHT22;32528;45.712;9.192;2022-11-15T06:38:36;8.80;99.90
28460;DHT22;32528;45.712;9.192;2022-11-15T06:41:00;8.90;99.90
28460;DHT22;32528;45.712;9.192;2022-11-15T06:43:21;8.90;99.90
28460;DHT22;32528;45.712;9.192;2022-11-15T06:45:40;9.00;99.90
28460;DHT22;32528;45.712;9.192;2022-11-15T06:47:59;9.00;99.90
28460;DHT22;32528;45.712;9.192;2022-11-15T06:50:18;9.00;99.90
28460;DHT22;32528;45.712;9.192;2022-11-15T06:52:38;9.10;99.90
28460;DHT22;32528;45.712;9.192;2022-11-15T06:54:57;9.10;99.90
28460;DHT22;32528;45.712;9.192;2022-11-15T06:57:17;9.10;99.90
28460;DHT22;32528;45.712;9.192;2022-11-15T06:59:36;9.10;99.90
28460;DHT22;32528;45.712;9.192;2022-11-15T07:01:55;9.10;99.90
28460;DHT22;32528;45.712;9.192;2022-11-15T07:04:14;9.20;99.90
28460;DHT22;32528;45.712;9.192;2022-11-15T07:06:34;9.20;99.90
28460;DHT22;32528;45.712;9.192;2022-11-15T07:08:53;9.20;99.90
28460;DHT22;32528;45.712;9.192;2022-11-15T07:11:13;9.30;99.90
28460;DHT22;32528;45.712;9.192;2022-11-15T07:13:32;9.30;99.90
28460;DHT22;32528;45.712;9.192;2022-11-15T07:15:52;9.30;99.90
28460;DHT22;32528;45.712;9.192;2022-11-15T07:18:11;9.50;99.90
28460;DHT22;32528;45.712;9.192;2022-11-15T07:20:30;9.50;99.90
28460;DHT22;32528;45.712;9.192;2022-11-15T07:22:49;9.50;99.90
28460;DHT22;32528;45.712;9.192;2022-11-15T07:25:09;9.50;99.90
28460;DHT22;32528;45.712;9.192;2022-11-15T07:27:28;9.50;99.90
28460;DHT22;32528;45.712;9.192;2022-11-15T07:29:47;9.50;99.90
28460;DHT22;32528;45.712;9.192;2022-11-15T07:32:06;9.50;99.90
28460;DHT22;32528;45.712;9.192;2022-11-15T07:34:25;9.50;99.90
28460;DHT22;32528;45.712;9.192;2022-11-15T07:36:45;9.50;99.90
28460;DHT22;32528;45.712;9.192;2022-11-15T07:39:04;9.60;99.90
28460;DHT22;32528;45.712;9.192;2022-11-15T07:41:23;9.60;99.90
28460;DHT22;32528;45.712;9.192;2022-11-15T07:43:42;9.60;99.90
28460;DHT22;32528;45.712;9.192;2022-11-15T07:46:05;9.70;99.90
28460;DHT22;32528;45.712;9.192;2022-11-15T07:48:28;9.80;99.90
28460;DHT22;32528;45.712;9.192;2022-11-15T07:50:47;9.80;99.90
28460;DHT22;32528;45.712;9.192;2022-11-15T07:53:07;9.80;99.90
28460;DHT22;32528;45.712;9.192;2022-11-15T07:55:27;9.80;99.90
28460;DHT22;32528;45.712;9.192;2022-11-15T07:57:48;9.90;99.90
28460;DHT22;32528;45.712;9.192;2022-11-15T08:00:09;9.90;99.90
28460;DHT22;32528;45.712;9.192;2022-11-15T08:02:28;10.00;99.90
28460;DHT22;32528;45.712;9.192;2022-11-15T08:04:47;10.00;99.90
28460;DHT22;32528;45.712;9.192;2022-11-15T08:07:07;10.10;99.90
28460;DHT22;32528;45.712;9.192;2022-11-15T08:09:26;10.10;99.90
28460;DHT22;32528;45.712;9.192;2022-11-15T08:11:45;10.20;99.90
28460;DHT22;32528;45.712;9.192;2022-11-15T08:14:04;10.30;99.90
28460;DHT22;32528;45.712;9.192;2022-11-15T08:16:23;10.30;99.90
28460;DHT22;32528;45.712;9.192;2022-11-15T08:18:43;10.30;99.90
28460;DHT22;32528;45.712;9.192;2022-11-15T08:21:02;10.30;99.90
28460;DHT22;32528;45.712;9.192;2022-11-15T08:23:21;10.40;99.90
28460;DHT22;32528;45.712;9.192;2022-11-15T08:25:40;10.30;99.90
28460;DHT22;32528;45.712;9.192;2022-11-15T08:28:01;10.40;99.90
28460;DHT22;32528;45.712;9.192;2022-11-15T08:30:20;10.40;99.90
28460;DHT22;32528;45.712;9.192;2022-11-15T08:32:39;10.40;99.90
28460;DHT22;32528;45.712;9.192;2022-11-15T08:34:58;10.40;99.90
28460;DHT22;32528;45.712;9.192;2022-11-15T08:37:17;10.40;99.90
28460;DHT22;32528;45.712;9.192;2022-11-15T08:39:37;10.50;99.90
28460;DHT22;32528;45.712;9.192;2022-11-15T08:41:56;10.60;99.90
28460;DHT22;32528;45.712;9.192;2022-11-15T08:44:15;10.60;99.90
28460;DHT22;32528;45.712;9.192;2022-11-15T08:46:35;10.70;99.90
28460;DHT22;32528;45.712;9.192;2022-11-15T08:48:55;10.70;99.90
28460;DHT22;32528;45.712;9.192;2022-11-15T08:51:14;10.80;99.90
28460;DHT22;32528;45.712;9.192;2022-11-15T08:53:34;10.80;99.90
28460;DHT22;32528;45.712;9.192;2022-11-15T08:55:54;10.90;99.90
28460;DHT22;32528;45.712;9.192;2022-11-15T08:58:14;10.90;99.90
28460;DHT22;32528;45.712;9.192;2022-11-15T09:00:34;10.90;99.90
28460;DHT22;32528;45.712;9.192;2022-11-15T09:02:53;10.90;99.90
28460;DHT22;32528;45.712;9.192;2022-11-15T09:05:12;11.00;99.90
28460;DHT22;32528;45.712;9.192;2022-11-15T09:07:31;11.10;99.90
28460;DHT22;32528;45.712;9.192;2022-11-15T09:09:51;11.20;99.90
28460;DHT22;32528;45.712;9.192;2022-11-15T09:12:10;11.20;99.90
28460;DHT22;32528;45.712;9.192;2022-11-15T09:14:29;11.20;99.90
28460;DHT22;32528;45.712;9.192;2022-11-15T09:16:48;11.20;99.90
28460;DHT22;32528;45.712;9.192;2022-11-15T09:19:08;11.30;99.90
28460;DHT22;32528;45.712;9.192;2022-11-15T09:21:28;11.30;99.90
28460;DHT22;32528;45.712;9.192;2022-11-15T09:23:49;11.40;99.90
28460;DHT22;32528;45.712;9.192;2022-11-15T09:26:09;11.40;99.90
28460;DHT22;32528;45.712;9.192;2022-11-15T09:28:29;11.50;99.90
28460;DHT22;32528;45.712;9.192;2022-11-15T09:30:49;11.60;99.90
28460;DHT22;32528;45.712;9.192;2022-11-15T09:33:08;11.50;99.90
28460;DHT22;32528;45.712;9.192;2022-11-15T09:35:28;11.50;99.90
28460;DHT22;32528;45.712;9.192;2022-11-15T09:37:47;11.40;99.90
28460;DHT22;32528;45.712;9.192;2022-11-15T09:40:08;11.40;99.90
28460;DHT22;32528;45.712;9.192;2022-11-15T09:49:57;11.80;99.90
28460;DHT22;32528;45.712;9.192;2022-11-15T09:52:06;11.90;99.90
28460;DHT22;32528;45.712;9.192;2022-11-15T09:56:16;12.00;99.90
28460;DHT22;32528;45.712;9.192;2022-11-15T09:58:22;12.00;99.90
28460;DHT22;32528;45.712;9.192;2022-11-15T10:00:31;11.80;99.90
28460;DHT22;32528;45.712;9.192;2022-11-15T10:04:38;11.80;99.90
28460;DHT22;32528;45.712;9.192;2022-11-15T10:06:42;11.80;99.90
28460;DHT22;32528;45.712;9.192;2022-11-15T10:08:58;11.70;99.90
28460;DHT22;32528;45.712;9.192;2022-11-15T10:11:00;11.70;99.90
28460;DHT22;32528;45.712;9.192;2022-11-15T10:13:02;11.50;99.90
28460;DHT22;32528;45.712;9.192;2022-11-15T10:15:04;11.60;99.90
28460;DHT22;32528;45.712;9.192;2022-11-15T10:21:43;11.70;99.90
28460;DHT22;32528;45.712;9.192;2022-11-15T10:23:47;11.70;99.90
28460;DHT22;32528;45.712;9.192;2022-11-15T10:25:50;11.70;99.90
28460;DHT22;32528;45.712;9.192;2022-11-15T10:28:01;11.80;99.90
28460;DHT22;32528;45.712;9.192;2022-11-15T10:30:02;11.90;99.90
28460;DHT22;32528;45.712;9.192;2022-11-15T10:32:04;12.00;99.90
28460;DHT22;32528;45.712;9.192;2022-11-15T10:38:13;12.10;99.90
28460;DHT22;32528;45.712;9.192;2022-11-15T10:42:27;12.10;99.90
28460;DHT22;32528;45.712;9.192;2022-11-15T10:44:29;12.20;99.90
28460;DHT22;32528;45.712;9.192;2022-11-15T10:46:29;12.20;99.90
28460;DHT22;32528;45.712;9.192;2022-11-15T10:48:30;12.10;99.90
28460;DHT22;32528;45.712;9.192;2022-11-15T10:50:31;12.10;99.90
28460;DHT22;32528;45.712;9.192;2022-11-15T10:52:33;12.10;99.90
28460;DHT22;32528;45.712;9.192;2022-11-15T10:54:42;12.20;99.90
28460;DHT22;32528;45.712;9.192;2022-11-15T10:56:43;12.20;99.90
28460;DHT22;32528;45.712;9.192;2022-11-15T10:58:58;12.20;99.90
28460;DHT22;32528;45.712;9.192;2022-11-15T11:03:34;11.90;99.90
28460;DHT22;32528;45.712;9.192;2022-11-15T11:05:36;11.90;99.90
28460;DHT22;32528;45.712;9.192;2022-11-15T11:07:38;12.00;99.90
28460;DHT22;32528;45.712;9.192;2022-11-15T11:09:39;12.00;99.90
28460;DHT22;32528;45.712;9.192;2022-11-15T11:11:49;12.00;99.90
28460;DHT22;32528;45.712;9.192;2022-11-15T11:13:50;12.00;99.90
28460;DHT22;32528;45.712;9.192;2022-11-15T11:18:26;12.10;99.90
28460;DHT22;32528;45.712;9.192;2022-11-15T11:22:52;12.00;99.90
28460;DHT22;32528;45.712;9.192;2022-11-15T11:27:09;12.00;99.90
28460;DHT22;32528;45.712;9.192;2022-11-15T11:29:20;12.00;99.90
28460;DHT22;32528;45.712;9.192;2022-11-15T11:31:35;12.00;99.90
28460;DHT22;32528;45.712;9.192;2022-11-15T11:46:31;12.10;99.90
28460;DHT22;32528;45.712;9.192;2022-11-15T11:48:42;12.00;99.90
28460;DHT22;32528;45.712;9.192;2022-11-15T11:50:44;11.90;99.90
28460;DHT22;32528;45.712;9.192;2022-11-15T11:57:28;12.00;99.90
28460;DHT22;32528;45.712;9.192;2022-11-15T11:59:33;12.00;99.90
28460;DHT22;32528;45.712;9.192;2022-11-15T12:01:39;12.00;99.90
28460;DHT22;32528;45.712;9.192;2022-11-15T12:05:43;12.00;99.90
28460;DHT22;32528;45.712;9.192;2022-11-15T12:07:44;12.00;99.90
28460;DHT22;32528;45.712;9.192;2022-11-15T12:10:22;12.00;99.90
28460;DHT22;32528;45.712;9.192;2022-11-15T12:12:19;12.10;99.90
28460;DHT22;32528;45.712;9.192;2022-11-15T12:14:35;12.10;99.90
28460;DHT22;32528;45.712;9.192;2022-11-15T12:16:36;12.20;99.90
28460;DHT22;32528;45.712;9.192;2022-11-15T12:18:38;12.30;99.90
28460;DHT22;32528;45.712;9.192;2022-11-15T12:20:41;12.30;99.90
28460;DHT22;32528;45.712;9.192;2022-11-15T12:24:45;12.40;99.90
28460;DHT22;32528;45.712;9.192;2022-11-15T12:26:52;12.30;99.90
28460;DHT22;32528;45.712;9.192;2022-11-15T12:28:55;12.30;99.90
28460;DHT22;32528;45.712;9.192;2022-11-15T12:32:59;12.10;99.90
28460;DHT22;32528;45.712;9.192;2022-11-15T12:35:00;12.10;99.90
28460;DHT22;32528;45.712;9.192;2022-11-15T12:37:01;12.00;99.90
28460;DHT22;32528;45.712;9.192;2022-11-15T12:40:03;12.00;99.90
28460;DHT22;32528;45.712;9.192;2022-11-15T12:41:44;11.90;99.90
28460;DHT22;32528;45.712;9.192;2022-11-15T12:43:45;11.90;99.90
28460;DHT22;32528;45.712;9.192;2022-11-15T12:45:46;11.90;99.90
28460;DHT22;32528;45.712;9.192;2022-11-15T12:47:47;12.00;99.90
28460;DHT22;32528;45.712;9.192;2022-11-15T12:49:48;12.00;99.90
28460;DHT22;32528;45.712;9.192;2022-11-15T12:53:49;12.00;99.90
28460;DHT22;32528;45.712;9.192;2022-11-15T12:58:28;12.00;99.90
28460;DHT22;32528;45.712;9.192;2022-11-15T13:00:39;12.00;99.90
28460;DHT22;32528;45.712;9.192;2022-11-15T13:02:40;12.00;99.90
28460;DHT22;32528;45.712;9.192;2022-11-15T13:04:45;12.00;99.90
28460;DHT22;32528;45.712;9.192;2022-11-15T13:08:53;12.00;99.90
28460;DHT22;32528;45.712;9.192;2022-11-15T13:10:54;12.10;99.90
28460;DHT22;32528;45.712;9.192;2022-11-15T13:12:55;12.10;99.90
28460;DHT22;32528;45.712;9.192;2022-11-15T13:14:57;12.10;99.90
28460;DHT22;32528;45.712;9.192;2022-11-15T13:16:59;12.10;99.90
28460;DHT22;32528;45.712;9.192;2022-11-15T13:19:00;12.00;99.90
28460;DHT22;32528;45.712;9.192;2022-11-15T13:21:02;12.10;99.90
28460;DHT22;32528;45.712;9.192;2022-11-15T13:23:23;12.10;99.90
28460;DHT22;32528;45.712;9.192;2022-11-15T13:27:33;12.00;99.90
28460;DHT22;32528;45.712;9.192;2022-11-15T13:29:34;12.00;99.90
28460;DHT22;32528;45.712;9.192;2022-11-15T13:31:42;11.90;99.90
28460;DHT22;32528;45.712;9.192;2022-11-15T13:33:43;11.90;99.90
28460;DHT22;32528;45.712;9.192;2022-11-15T13:35:50;11.90;99.90
28460;DHT22;32528;45.712;9.192;2022-11-15T13:37:52;12.00;99.90
28460;DHT22;32528;45.712;9.192;2022-11-15T13:39:53;12.00;99.90
28460;DHT22;32528;45.712;9.192;2022-11-15T13:41:54;12.10;99.90
28460;DHT22;32528;45.712;9.192;2022-11-15T13:43:55;12.10;99.90
28460;DHT22;32528;45.712;9.192;2022-11-15T13:48:15;12.20;99.90
28460;DHT22;32528;45.712;9.192;2022-11-15T13:50:15;12.10;99.90
28460;DHT22;32528;45.712;9.192;2022-11-15T13:52:16;12.10;99.90
28460;DHT22;32528;45.712;9.192;2022-11-15T13:56:22;12.10;99.90
28460;DHT22;32528;45.712;9.192;2022-11-15T13:58:22;12.10;99.90
28460;DHT22;32528;45.712;9.192;2022-11-15T14:02:39;12.00;99.90
28460;DHT22;32528;45.712;9.192;2022-11-15T14:04:47;12.00;99.90
28460;DHT22;32528;45.712;9.192;2022-11-15T14:06:50;11.90;99.90
28460;DHT22;32528;45.712;9.192;2022-11-15T14:13:26;11.90;99.90
28460;DHT22;32528;45.712;9.192;2022-11-15T14:15:32;11.90;99.90
28460;DHT22;32528;45.712;9.192;2022-11-15T14:17:34;11.90;99.90
28460;DHT22;32528;45.712;9.192;2022-11-15T14:19:37;11.80;99.90
28460;DHT22;32528;45.712;9.192;2022-11-15T14:21:49;11.70;99.90
28460;DHT22;32528;45.712;9.192;2022-11-15T14:24:20;11.70;99.90
28460;DHT22;32528;45.712;9.192;2022-11-15T14:26:34;11.70;99.90
28460;DHT22;32528;45.712;9.192;2022-11-15T14:28:35;11.80;99.90
28460;DHT22;32528;45.712;9.192;2022-11-15T14:30:39;11.80;99.90
28460;DHT22;32528;45.712;9.192;2022-11-15T14:32:47;11.80;99.90
28460;DHT22;32528;45.712;9.192;2022-11-15T14:34:58;11.80;99.90
28460;DHT22;32528;45.712;9.192;2022-11-15T14:36:59;11.70;99.90
28460;DHT22;32528;45.712;9.192;2022-11-15T14:38:59;11.70;99.90
28460;DHT22;32528;45.712;9.192;2022-11-15T14:41:01;11.80;99.90
28460;DHT22;32528;45.712;9.192;2022-11-15T14:43:02;11.80;99.90
28460;DHT22;32528;45.712;9.192;2022-11-15T14:45:02;11.80;99.90
28460;DHT22;32528;45.712;9.192;2022-11-15T14:47:03;11.80;99.90
28460;DHT22;32528;45.712;9.192;2022-11-15T14:49:04;11.70;99.90
28460;DHT22;32528;45.712;9.192;2022-11-15T14:51:09;11.60;99.90
28460;DHT22;32528;45.712;9.192;2022-11-15T14:53:12;11.60;99.90
28460;DHT22;32528;45.712;9.192;2022-11-15T14:55:16;11.60;99.90
28460;DHT22;32528;45.712;9.192;2022-11-15T14:57:18;11.60;99.90
28460;DHT22;32528;45.712;9.192;2022-11-15T14:59:19;11.60;99.90
28460;DHT22;32528;45.712;9.192;2022-11-15T15:01:21;11.60;99.90
28460;DHT22;32528;45.712;9.192;2022-11-15T15:03:23;11.60;99.90
28460;DHT22;32528;45.712;9.192;2022-11-15T15:05:25;11.60;99.90
28460;DHT22;32528;45.712;9.192;2022-11-15T15:07:26;11.60;99.90
28460;DHT22;32528;45.712;9.192;2022-11-15T15:09:27;11.60;99.90
28460;DHT22;32528;45.712;9.192;2022-11-15T15:11:30;11.60;99.90
28460;DHT22;32528;45.712;9.192;2022-11-15T15:13:30;11.60;99.90
28460;DHT22;32528;45.712;9.192;2022-11-15T15:15:35;11.60;99.90
28460;DHT22;32528;45.712;9.192;2022-11-15T15:17:36;11.60;99.90
28460;DHT22;32528;45.712;9.192;2022-11-15T15:19:36;11.50;99.90
28460;DHT22;32528;45.712;9.192;2022-11-15T15:21:37;11.60;99.90
28460;DHT22;32528;45.712;9.192;2022-11-15T15:23:38;11.50;99.90
28460;DHT22;32528;45.712;9.192;2022-11-15T15:25:39;11.50;99.90
28460;DHT22;32528;45.712;9.192;2022-11-15T15:27:40;11.50;99.90
28460;DHT22;32528;45.712;9.192;2022-11-15T15:29:41;11.50;99.90
28460;DHT22;32528;45.712;9.192;2022-11-15T15:31:41;11.50;99.90
28460;DHT22;32528;45.712;9.192;2022-11-15T15:33:42;11.50;99.90
28460;DHT22;32528;45.712;9.192;2022-11-15T15:35:43;11.50;99.90
28460;DHT22;32528;45.712;9.192;2022-11-15T15:37:44;11.50;99.90
28460;DHT22;32528;45.712;9.192;2022-11-15T15:39:46;11.50;99.90
28460;DHT22;32528;45.712;9.192;2022-11-15T15:41:46;11.50;99.90
28460;DHT22;32528;45.712;9.192;2022-11-15T15:43:47;11.50;99.90
28460;DHT22;32528;45.712;9.192;2022-11-15T15:45:48;11.50;99.90
28460;DHT22;32528;45.712;9.192;2022-11-15T15:47:48;11.40;99.90
28460;DHT22;32528;45.712;9.192;2022-11-15T15:49:52;11.50;99.90
28460;DHT22;32528;45.712;9.192;2022-11-15T15:51:53;11.50;99.90
28460;DHT22;32528;45.712;9.192;2022-11-15T15:53:53;11.50;99.90
28460;DHT22;32528;45.712;9.192;2022-11-15T15:55:57;11.50;99.90
28460;DHT22;32528;45.712;9.192;2022-11-15T15:57:58;11.50;99.90
28460;DHT22;32528;45.712;9.192;2022-11-15T15:59:59;11.50;99.90
28460;DHT22;32528;45.712;9.192;2022-11-15T16:01:59;11.50;99.90